Deer Mountain, Utah
Current Conditions -  °F | °C
As of 8:53 AM on Tuesday 21 Oct 2014 (Local Time) from KEVW Reporting Station
Few Clouds Few Clouds  
Wind Chill: 44°   Ceiling: Unl
Heat Index: 49°   Visibility: 10mi
Dew Point: 37°   Wind: 12mph
Humidity: 64%   Direction: 210°SSW
Pressure: 30.02"   Gusts: NA
Location:  40.8065°N, 110.723°W
Report Text: KEVW 211453Z AUTO 21010KT 10SM FEW070 09/03 A3002 RMK AO2 SLP102 60000 T00940028 58003 TSNO
Loading
Personal Weather Stations






























Interactive Weather Map
Tropical Storm Tracking
New forecast layout! Learn more

10-Day Weather Forecast

Advertisements
Track Severe Weather on mobile